createdAt,value
2023-06-29T00:01:03.753Z,11.10
2023-06-29T00:03:33.652Z,10.80
2023-06-29T00:06:02.765Z,8.40
2023-06-29T00:08:37.067Z,9.10
2023-06-29T00:11:04.880Z,11.00
2023-06-29T00:13:31.933Z,8.90
2023-06-29T00:15:58.793Z,12.70
2023-06-29T00:18:29.556Z,10.20
2023-06-29T00:20:57.617Z,8.40
2023-06-29T00:23:26.130Z,11.80
2023-06-29T00:25:53.743Z,14.50
2023-06-29T00:28:20.577Z,9.90
2023-06-29T00:30:48.817Z,10.70
2023-06-29T00:33:15.642Z,9.20
2023-06-29T00:35:42.740Z,9.30
2023-06-29T00:38:09.821Z,11.10
2023-06-29T00:40:36.776Z,9.00
2023-06-29T00:43:03.695Z,9.50
2023-06-29T00:45:31.631Z,10.90
2023-06-29T00:47:58.969Z,13.20
2023-06-29T00:50:26.647Z,10.70
2023-06-29T00:52:54.068Z,10.20
2023-06-29T00:55:22.620Z,11.90
2023-06-29T00:57:49.434Z,13.10
2023-06-29T01:00:16.785Z,11.20
2023-06-29T01:02:44.377Z,13.00
2023-06-29T01:05:14.855Z,13.20
2023-06-29T01:07:51.601Z,12.30
2023-06-29T01:10:24.839Z,9.20
2023-06-29T01:12:53.335Z,11.40
2023-06-29T01:15:22.869Z,11.70
2023-06-29T01:17:56.041Z,9.70
2023-06-29T01:20:27.201Z,12.20
2023-06-29T01:22:56.003Z,11.80
2023-06-29T01:25:24.938Z,14.60
2023-06-29T01:27:51.837Z,9.80
2023-06-29T01:30:19.474Z,10.20
2023-06-29T01:32:46.956Z,11.70
2023-06-29T01:35:14.547Z,11.80
2023-06-29T01:37:57.099Z,11.20
2023-06-29T01:40:29.014Z,12.10
2023-06-29T01:42:58.195Z,13.80
2023-06-29T01:45:26.182Z,11.80
2023-06-29T01:47:56.866Z,14.50
2023-06-29T01:50:25.191Z,13.70
2023-06-29T01:52:52.011Z,10.50
2023-06-29T01:55:18.892Z,14.00
2023-06-29T01:57:45.718Z,12.30
2023-06-29T02:00:14.471Z,15.50
2023-06-29T02:02:41.966Z,14.30
2023-06-29T02:05:09.575Z,16.50
2023-06-29T02:07:36.543Z,11.80
2023-06-29T02:10:03.791Z,11.70
2023-06-29T02:12:31.914Z,13.80
2023-06-29T02:14:58.721Z,13.50
2023-06-29T02:17:25.569Z,12.20
2023-06-29T02:19:52.472Z,14.60
2023-06-29T02:22:19.214Z,15.30
2023-06-29T02:24:46.083Z,14.70
2023-06-29T02:27:12.998Z,16.60
2023-06-29T02:29:43.129Z,16.20
2023-06-29T02:32:09.933Z,16.30
2023-06-29T02:34:36.787Z,14.90
2023-06-29T02:37:04.878Z,14.50
2023-06-29T02:39:31.963Z,15.50
2023-06-29T02:41:58.961Z,18.30
2023-06-29T02:44:26.319Z,15.80
2023-06-29T02:46:53.097Z,14.80
2023-06-29T02:49:19.960Z,16.50
2023-06-29T02:51:47.634Z,17.30
2023-06-29T02:54:15.981Z,16.30
2023-06-29T02:56:44.446Z,17.40
2023-06-29T02:59:11.408Z,16.30
2023-06-29T03:01:38.199Z,21.20
2023-06-29T03:04:05.198Z,18.70
2023-06-29T03:06:34.553Z,19.60
2023-06-29T03:09:02.506Z,18.70
2023-06-29T03:11:29.332Z,14.70
2023-06-29T03:13:57.783Z,14.20
2023-06-29T03:16:24.721Z,17.20
2023-06-29T03:19:07.371Z,18.70
2023-06-29T03:21:34.558Z,18.60
2023-06-29T03:24:01.372Z,17.80
2023-06-29T03:26:28.192Z,18.00
2023-06-29T03:28:55.077Z,16.70
2023-06-29T03:31:21.922Z,18.20
2023-06-29T03:33:49.621Z,18.20
2023-06-29T03:36:16.787Z,21.50
2023-06-29T03:38:43.547Z,17.00
2023-06-29T03:41:10.566Z,19.70
2023-06-29T03:43:37.370Z,15.90
2023-06-29T03:46:04.169Z,17.80
2023-06-29T03:48:31.227Z,18.90
2023-06-29T03:50:58.653Z,21.30
2023-06-29T03:53:25.456Z,22.70
2023-06-29T03:55:52.353Z,18.00
2023-06-29T03:58:19.518Z,21.60
2023-06-29T04:00:46.475Z,21.00
2023-06-29T04:03:13.631Z,18.60
2023-06-29T04:05:40.728Z,17.80
2023-06-29T04:08:08.016Z,18.60
2023-06-29T04:10:35.380Z,18.30
2023-06-29T04:13:03.087Z,18.00
2023-06-29T04:15:31.504Z,19.00
2023-06-29T04:17:58.524Z,16.20
2023-06-29T04:20:25.890Z,18.80
2023-06-29T04:22:52.736Z,23.50
2023-06-29T04:25:19.791Z,19.60
2023-06-29T04:27:47.095Z,17.10
2023-06-29T04:30:14.246Z,18.10
2023-06-29T04:32:41.115Z,17.90
2023-06-29T04:35:10.801Z,15.80
2023-06-29T04:37:41.997Z,16.50
2023-06-29T04:40:11.018Z,20.50
2023-06-29T04:42:46.831Z,19.50
2023-06-29T04:45:19.222Z,16.60
2023-06-29T04:47:50.932Z,15.80
2023-06-29T04:50:27.644Z,16.30
2023-06-29T04:52:55.535Z,17.70
2023-06-29T04:55:23.939Z,20.30
2023-06-29T04:57:50.802Z,17.30
2023-06-29T05:00:18.070Z,18.60
2023-06-29T05:02:45.076Z,16.60
2023-06-29T05:05:12.809Z,15.90
2023-06-29T05:07:39.809Z,16.30
2023-06-29T05:10:07.139Z,18.10
2023-06-29T05:12:34.730Z,14.90
2023-06-29T05:15:01.546Z,19.20
2023-06-29T05:17:28.464Z,16.00
2023-06-29T05:19:55.387Z,13.60
2023-06-29T05:22:22.219Z,13.50
2023-06-29T05:24:49.165Z,15.80
2023-06-29T05:27:16.011Z,12.80
2023-06-29T05:29:42.852Z,12.70
2023-06-29T05:32:10.065Z,16.90
2023-06-29T05:34:37.027Z,13.20
2023-06-29T05:37:03.993Z,11.80
2023-06-29T05:39:30.887Z,11.00
2023-06-29T05:41:57.813Z,11.20
2023-06-29T05:44:24.660Z,10.00
2023-06-29T05:46:51.504Z,11.10
2023-06-29T05:49:18.514Z,13.30
2023-06-29T05:51:45.500Z,12.20
2023-06-29T05:54:12.529Z,11.10
2023-06-29T05:56:39.406Z,11.10
2023-06-29T05:59:06.305Z,11.10
2023-06-29T06:01:33.332Z,14.80
2023-06-29T06:04:00.419Z,10.80
2023-06-29T06:06:27.335Z,12.00
2023-06-29T06:08:54.158Z,13.60
2023-06-29T06:11:20.974Z,11.80
2023-06-29T06:13:47.845Z,13.50
2023-06-29T06:16:14.975Z,10.80
2023-06-29T06:18:42.595Z,8.60
2023-06-29T06:21:09.523Z,8.70
2023-06-29T06:23:36.696Z,11.30
2023-06-29T06:26:03.719Z,10.10
2023-06-29T06:28:30.552Z,8.60
2023-06-29T06:30:57.420Z,8.40
2023-06-29T06:33:24.422Z,8.20
2023-06-29T06:35:51.271Z,9.90
2023-06-29T06:38:18.725Z,9.00
2023-06-29T06:40:45.941Z,10.10
2023-06-29T06:43:12.887Z,9.60
2023-06-29T06:45:39.894Z,10.50
2023-06-29T06:48:06.819Z,8.10
2023-06-29T06:50:33.674Z,8.90
2023-06-29T06:53:01.057Z,7.20
2023-06-29T06:55:28.347Z,10.00
2023-06-29T06:57:55.193Z,7.70
2023-06-29T07:00:22.218Z,8.80
2023-06-29T07:02:49.163Z,10.70
2023-06-29T07:05:16.231Z,7.20
2023-06-29T07:07:43.126Z,10.10
2023-06-29T07:10:10.942Z,7.10
2023-06-29T07:12:38.079Z,7.20
2023-06-29T07:15:05.810Z,11.20
2023-06-29T07:17:33.602Z,9.10
2023-06-29T07:25:01.861Z,9.20
2023-06-29T07:27:28.688Z,7.70
2023-06-29T07:29:55.550Z,9.00
2023-06-29T07:32:22.430Z,6.40
2023-06-29T07:34:49.216Z,8.00
2023-06-29T07:37:16.377Z,6.60
2023-06-29T07:39:43.224Z,8.30
2023-06-29T07:42:10.075Z,7.10
2023-06-29T07:44:36.916Z,9.90
2023-06-29T07:47:04.005Z,11.30
2023-06-29T07:49:30.892Z,12.20
2023-06-29T07:51:59.045Z,13.80
2023-06-29T07:54:25.864Z,13.00
2023-06-29T07:59:22.592Z,9.80
2023-06-29T08:01:50.462Z,9.70
2023-06-29T08:06:42.859Z,8.30
2023-06-29T08:07:08.584Z,10.50
2023-06-29T08:09:36.826Z,8.90
2023-06-29T08:12:03.928Z,11.70
2023-06-29T08:14:33.488Z,11.80
2023-06-29T08:17:00.562Z,11.40
2023-06-29T08:19:27.660Z,12.60
2023-06-29T08:21:56.711Z,12.70
2023-06-29T08:24:23.752Z,13.00
2023-06-29T08:26:50.606Z,10.90
2023-06-29T08:29:17.795Z,16.30
2023-06-29T08:31:44.719Z,16.20
2023-06-29T08:34:11.915Z,13.20
2023-06-29T08:36:38.817Z,13.10
2023-06-29T08:39:05.646Z,13.30
2023-06-29T08:41:32.588Z,16.40
2023-06-29T08:43:59.482Z,16.90
2023-06-29T08:46:28.694Z,17.10
2023-06-29T08:48:55.771Z,16.70
2023-06-29T08:51:23.534Z,17.30
2023-06-29T08:53:51.332Z,18.60
2023-06-29T08:56:19.403Z,16.90
2023-06-29T08:58:46.618Z,18.70
2023-06-29T09:01:13.855Z,16.50
2023-06-29T09:03:41.619Z,20.10
2023-06-29T09:06:10.036Z,17.10
2023-06-29T09:08:39.068Z,17.60
2023-06-29T09:11:06.743Z,16.60
2023-06-29T09:13:34.884Z,15.40
2023-06-29T09:16:03.169Z,16.20
2023-06-29T09:18:31.003Z,14.70
2023-06-29T09:20:58.259Z,14.70
2023-06-29T09:23:27.890Z,14.20
2023-06-29T09:25:57.134Z,17.10
2023-06-29T09:28:25.219Z,13.60
2023-06-29T09:30:52.773Z,13.50
2023-06-29T09:33:20.533Z,13.80
2023-06-29T09:35:51.691Z,14.30
2023-06-29T09:38:19.373Z,17.00
2023-06-29T09:40:47.955Z,11.50
2023-06-29T09:43:18.214Z,13.60
2023-06-29T09:45:45.724Z,11.80
2023-06-29T09:50:53.525Z,10.70
2023-06-29T09:53:36.594Z,13.20
2023-06-29T09:56:04.649Z,12.40
2023-06-29T09:58:32.221Z,11.60
2023-06-29T10:01:01.444Z,13.70
2023-06-29T10:03:29.496Z,9.50
2023-06-29T10:06:00.626Z,10.30
2023-06-29T10:08:29.980Z,8.30
2023-06-29T10:11:03.827Z,7.90
2023-06-29T10:13:36.497Z,8.30
2023-06-29T10:16:04.282Z,8.90
2023-06-29T10:18:35.897Z,7.90
2023-06-29T10:21:02.982Z,7.50
2023-06-29T10:23:31.544Z,8.30
2023-06-29T10:26:01.001Z,8.00
2023-06-29T10:28:28.168Z,7.80
2023-06-29T10:30:59.406Z,7.80
2023-06-29T10:33:27.586Z,10.00
2023-06-29T10:35:59.253Z,8.70
2023-06-29T10:38:35.219Z,7.00
2023-06-29T10:41:06.009Z,7.30
2023-06-29T10:44:04.318Z,6.60
2023-06-29T10:46:46.484Z,6.90
2023-06-29T10:49:30.018Z,7.10
2023-06-29T10:52:04.204Z,7.50
2023-06-29T10:54:32.116Z,5.80
2023-06-29T10:57:02.470Z,5.40
2023-06-29T10:59:30.991Z,5.50
2023-06-29T11:01:58.501Z,5.50
2023-06-29T11:04:25.802Z,8.60
2023-06-29T11:06:52.771Z,5.80
2023-06-29T11:09:21.004Z,5.20
2023-06-29T11:11:49.676Z,6.30
2023-06-29T11:14:17.827Z,5.70
2023-06-29T11:16:44.746Z,4.70
2023-06-29T11:19:13.666Z,7.10
2023-06-29T11:21:42.215Z,6.10
2023-06-29T11:24:11.379Z,6.80
2023-06-29T11:26:38.475Z,6.10
2023-06-29T11:29:08.732Z,5.70
2023-06-29T11:31:35.692Z,5.60
2023-06-29T11:34:02.631Z,5.00
2023-06-29T11:36:30.967Z,6.60
2023-06-29T11:39:14.378Z,5.10
2023-06-29T11:41:42.305Z,6.60
2023-06-29T11:44:12.204Z,5.90
2023-06-29T11:46:54.233Z,4.30
2023-06-29T11:49:26.569Z,5.40
2023-06-29T11:51:54.119Z,3.80
2023-06-29T11:54:21.238Z,6.40
2023-06-29T11:56:49.995Z,3.90
2023-06-29T11:59:17.109Z,5.30
2023-06-29T12:01:45.849Z,5.50
2023-06-29T12:04:16.168Z,3.50
2023-06-29T12:06:58.974Z,3.80
2023-06-29T12:09:31.417Z,7.00
2023-06-29T12:12:00.540Z,4.90
2023-06-29T12:14:29.658Z,5.80
2023-06-29T12:19:34.396Z,4.10
2023-06-29T12:22:02.137Z,4.00
2023-06-29T12:24:30.124Z,5.70
2023-06-29T12:26:58.058Z,3.70
2023-06-29T12:29:24.980Z,4.40
2023-06-29T12:31:59.297Z,4.50
2023-06-29T12:34:26.542Z,4.90
2023-06-29T12:36:53.350Z,3.70
2023-06-29T12:39:20.954Z,3.70
2023-06-29T12:41:47.785Z,4.60
2023-06-29T12:44:14.617Z,7.50
2023-06-29T12:46:41.504Z,5.10
2023-06-29T12:49:08.738Z,3.90
2023-06-29T12:51:35.555Z,3.90
2023-06-29T12:54:02.664Z,5.70
2023-06-29T12:56:29.529Z,5.00
2023-06-29T12:58:56.432Z,3.70
2023-06-29T13:01:24.133Z,3.00
2023-06-29T13:03:51.102Z,5.90
2023-06-29T13:06:18.188Z,3.60
2023-06-29T13:08:45.007Z,5.70
2023-06-29T13:11:12.258Z,3.60
2023-06-29T13:13:39.203Z,5.90
2023-06-29T13:16:06.037Z,6.40
2023-06-29T13:18:32.899Z,5.50
2023-06-29T13:20:59.838Z,4.50
2023-06-29T13:23:26.740Z,4.70
2023-06-29T13:25:53.644Z,3.60
2023-06-29T13:28:21.600Z,6.30
2023-06-29T13:30:48.482Z,2.60
2023-06-29T13:33:15.673Z,5.40
2023-06-29T13:35:42.505Z,4.00
2023-06-29T13:38:09.356Z,3.30
2023-06-29T13:40:36.299Z,3.30
2023-06-29T13:43:03.195Z,3.90
2023-06-29T13:45:30.134Z,4.50
2023-06-29T13:48:00.587Z,2.90
2023-06-29T13:50:40.327Z,3.70
2023-06-29T13:53:08.048Z,3.00
2023-06-29T13:55:34.865Z,4.00
2023-06-29T13:58:01.803Z,3.50
2023-06-29T14:00:28.794Z,3.40
2023-06-29T14:02:58.173Z,3.40
2023-06-29T14:05:25.131Z,4.10
2023-06-29T14:07:52.049Z,3.50
2023-06-29T14:10:18.810Z,4.90
2023-06-29T14:12:45.789Z,2.50
2023-06-29T14:15:12.748Z,3.00
2023-06-29T14:17:40.099Z,3.00
2023-06-29T14:20:07.855Z,4.10
2023-06-29T14:22:36.682Z,4.10
2023-06-29T14:25:04.925Z,3.10
2023-06-29T14:27:31.841Z,3.50
2023-06-29T14:29:58.680Z,5.90
2023-06-29T14:32:25.658Z,4.90
2023-06-29T14:34:52.857Z,6.10
2023-06-29T14:37:19.760Z,3.40
2023-06-29T14:39:46.816Z,3.30
2023-06-29T14:42:13.699Z,6.20
2023-06-29T14:44:42.892Z,4.30
2023-06-29T14:47:11.352Z,4.10
2023-06-29T14:49:38.243Z,4.00
2023-06-29T14:52:05.324Z,3.10
2023-06-29T14:54:32.228Z,3.40
2023-06-29T14:56:59.269Z,7.00
2023-06-29T14:59:26.127Z,7.00
2023-06-29T15:01:53.065Z,4.20
2023-06-29T15:04:19.938Z,3.30
2023-06-29T15:06:52.320Z,4.50
2023-06-29T15:09:20.199Z,3.40
2023-06-29T15:11:47.109Z,4.40
2023-06-29T15:14:14.148Z,4.90
2023-06-29T15:16:41.157Z,5.50
2023-06-29T15:19:08.178Z,3.90
2023-06-29T15:21:35.129Z,4.00
2023-06-29T15:24:02.481Z,3.30
2023-06-29T15:26:29.400Z,3.40
2023-06-29T15:28:56.747Z,2.70
2023-06-29T15:31:23.684Z,4.60
2023-06-29T15:33:50.547Z,3.60
2023-06-29T15:36:17.521Z,4.20
2023-06-29T15:38:44.409Z,3.80
2023-06-29T15:41:11.312Z,2.90
2023-06-29T15:43:38.718Z,3.10
2023-06-29T15:46:05.781Z,4.30
2023-06-29T15:48:32.855Z,4.00
2023-06-29T15:51:00.975Z,6.10
2023-06-29T15:53:27.904Z,5.10
2023-06-29T15:55:54.800Z,4.70
2023-06-29T15:58:21.650Z,5.10
2023-06-29T16:00:48.473Z,3.80
2023-06-29T16:03:15.481Z,4.10
2023-06-29T16:05:42.506Z,4.70
2023-06-29T16:08:09.726Z,6.60
2023-06-29T16:10:36.598Z,4.60
2023-06-29T16:13:03.451Z,3.80
2023-06-29T16:15:30.754Z,5.90
2023-06-29T16:17:57.847Z,5.10
2023-06-29T16:20:24.715Z,5.10
2023-06-29T16:22:51.612Z,4.00
2023-06-29T16:25:24.459Z,4.30
2023-06-29T16:27:51.964Z,3.60
2023-06-29T16:30:18.907Z,3.10
2023-06-29T16:32:46.565Z,3.70
2023-06-29T16:35:14.283Z,3.60
2023-06-29T16:37:42.181Z,4.10
2023-06-29T16:40:09.557Z,3.80
2023-06-29T16:42:36.584Z,4.00
2023-06-29T16:45:04.206Z,3.30
2023-06-29T16:47:31.048Z,3.00
2023-06-29T16:49:59.033Z,3.50
2023-06-29T16:52:25.926Z,2.70
2023-06-29T16:54:52.687Z,4.40
2023-06-29T16:57:19.679Z,2.40
2023-06-29T16:59:46.512Z,2.50
2023-06-29T17:02:13.426Z,3.20
2023-06-29T17:04:41.031Z,3.70
2023-06-29T17:07:08.291Z,4.80
2023-06-29T17:09:35.119Z,7.10
2023-06-29T17:12:02.124Z,5.20
2023-06-29T17:14:28.944Z,3.20
2023-06-29T17:16:55.857Z,3.60
2023-06-29T17:19:22.906Z,3.00
2023-06-29T17:21:49.818Z,3.20
2023-06-29T17:24:16.715Z,4.10
2023-06-29T17:26:43.572Z,3.90
2023-06-29T17:29:10.480Z,3.60
2023-06-29T17:31:37.382Z,2.90
2023-06-29T17:34:04.194Z,3.30
2023-06-29T17:36:31.246Z,2.80
2023-06-29T17:38:58.154Z,4.30
2023-06-29T17:41:25.249Z,4.10
2023-06-29T17:43:52.082Z,4.10
2023-06-29T17:46:19.155Z,3.50
2023-06-29T17:48:46.351Z,4.00
2023-06-29T17:51:15.692Z,5.50
2023-06-29T17:53:45.406Z,5.00
2023-06-29T17:56:15.474Z,6.70
2023-06-29T17:58:44.573Z,5.40
2023-06-29T18:01:11.914Z,12.30
2023-06-29T18:03:40.591Z,36.60
2023-06-29T18:06:08.340Z,57.30
2023-06-29T18:08:35.324Z,67.50
2023-06-29T18:11:02.424Z,44.80
2023-06-29T18:13:29.200Z,83.20
2023-06-29T18:15:56.105Z,106.00
2023-06-29T18:18:22.965Z,72.00
2023-06-29T18:20:49.756Z,71.70
2023-06-29T18:23:16.555Z,36.70
2023-06-29T18:25:43.833Z,73.80
2023-06-29T18:28:11.121Z,31.90
2023-06-29T18:30:38.079Z,36.40
2023-06-29T18:33:04.969Z,12.80
2023-06-29T18:35:31.836Z,9.70
2023-06-29T18:37:58.656Z,14.50
2023-06-29T18:40:28.200Z,8.20
2023-06-29T18:42:55.172Z,10.70
2023-06-29T18:45:24.227Z,6.60
2023-06-29T18:47:51.087Z,5.20
2023-06-29T18:50:17.965Z,6.40
2023-06-29T18:52:45.843Z,5.60
2023-06-29T18:55:12.607Z,4.60
2023-06-29T18:57:39.521Z,6.80
2023-06-29T19:00:08.167Z,8.20
2023-06-29T19:02:35.121Z,11.80
2023-06-29T19:05:03.959Z,9.20
2023-06-29T19:07:30.950Z,7.70
2023-06-29T19:09:57.820Z,7.00
2023-06-29T19:12:38.706Z,9.00
2023-06-29T19:15:07.850Z,5.70
2023-06-29T19:17:35.332Z,4.20
2023-06-29T19:20:02.263Z,3.90
2023-06-29T19:22:29.097Z,4.40
2023-06-29T19:24:55.856Z,5.20
2023-06-29T19:27:22.718Z,5.90
2023-06-29T19:29:49.733Z,4.60
2023-06-29T19:32:16.616Z,6.40
2023-06-29T19:34:43.614Z,4.20
2023-06-29T19:37:11.425Z,5.80
2023-06-29T19:39:38.224Z,7.60
2023-06-29T19:42:06.465Z,4.40
2023-06-29T19:44:33.404Z,3.80
2023-06-29T19:47:00.237Z,4.70
2023-06-29T19:49:28.009Z,4.00
2023-06-29T19:51:58.990Z,6.10
2023-06-29T19:54:26.503Z,5.60
2023-06-29T19:56:53.504Z,6.70
2023-06-29T19:59:20.354Z,5.30
2023-06-29T20:01:47.215Z,4.20
2023-06-29T20:04:14.157Z,4.20
2023-06-29T20:07:45.451Z,6.50
2023-06-29T20:10:13.127Z,6.70
2023-06-29T20:12:40.241Z,4.40
2023-06-29T20:15:08.526Z,6.20
2023-06-29T20:17:36.026Z,5.70
2023-06-29T20:20:03.681Z,5.60
2023-06-29T20:22:31.188Z,7.60
2023-06-29T20:24:58.009Z,7.30
2023-06-29T20:27:26.296Z,4.60
2023-06-29T20:29:54.185Z,5.10
2023-06-29T20:32:22.498Z,5.40
2023-06-29T20:34:49.426Z,4.90
2023-06-29T20:37:16.296Z,4.80
2023-06-29T20:39:43.191Z,5.70
2023-06-29T20:42:10.000Z,6.40
2023-06-29T20:44:37.205Z,6.20
2023-06-29T20:47:04.664Z,4.00
2023-06-29T20:49:31.468Z,4.80
2023-06-29T20:51:59.484Z,4.50
2023-06-29T20:54:27.276Z,4.70
2023-06-29T20:56:54.465Z,6.60
2023-06-29T20:59:21.296Z,6.00
2023-06-29T21:01:48.230Z,8.80
2023-06-29T21:04:15.351Z,7.80
2023-06-29T21:06:42.226Z,6.20
2023-06-29T21:09:09.072Z,6.50
2023-06-29T21:11:38.578Z,5.60
2023-06-29T21:14:07.825Z,5.10
2023-06-29T21:16:35.428Z,8.30
2023-06-29T21:19:03.259Z,7.90
2023-06-29T21:21:30.309Z,9.40
2023-06-29T21:23:57.195Z,8.10
2023-06-29T21:26:25.318Z,7.10
2023-06-29T21:28:55.384Z,9.20
2023-06-29T21:31:22.538Z,5.90
2023-06-29T21:33:49.820Z,5.30
2023-06-29T21:36:16.935Z,5.00
2023-06-29T21:38:50.587Z,7.80
2023-06-29T21:41:17.880Z,7.30
2023-06-29T21:43:45.011Z,7.70
2023-06-29T21:46:11.858Z,4.80
2023-06-29T21:48:40.414Z,6.60
2023-06-29T21:51:08.597Z,8.90
2023-06-29T21:53:37.024Z,4.80
2023-06-29T21:56:20.884Z,8.00
2023-06-29T21:58:50.992Z,4.40
2023-06-29T22:01:17.946Z,4.40
2023-06-29T22:03:44.923Z,4.80
2023-06-29T22:06:12.065Z,6.20
2023-06-29T22:08:38.849Z,10.20
2023-06-29T22:11:06.166Z,19.50
2023-06-29T22:13:32.973Z,17.00
2023-06-29T22:15:59.863Z,20.80
2023-06-29T22:18:26.842Z,20.60
2023-06-29T22:20:53.866Z,9.90
2023-06-29T22:23:21.013Z,8.00
2023-06-29T22:25:48.080Z,10.30
2023-06-29T22:28:15.023Z,8.00
2023-06-29T22:30:41.834Z,10.90
2023-06-29T22:33:08.688Z,8.10
2023-06-29T22:35:35.658Z,14.10
2023-06-29T22:38:02.663Z,7.80
2023-06-29T22:40:29.478Z,7.80
2023-06-29T22:42:56.537Z,5.20
2023-06-29T22:45:23.724Z,8.80
2023-06-29T22:47:50.615Z,8.40
2023-06-29T22:50:17.478Z,6.20
2023-06-29T22:52:44.982Z,6.80
2023-06-29T22:55:11.911Z,8.60
2023-06-29T22:57:38.748Z,7.90
2023-06-29T23:00:08.502Z,9.10
2023-06-29T23:02:35.419Z,5.20
2023-06-29T23:05:02.287Z,6.00
2023-06-29T23:07:29.465Z,6.80
2023-06-29T23:09:56.355Z,7.40
2023-06-29T23:12:27.291Z,7.40
2023-06-29T23:14:56.096Z,7.10
2023-06-29T23:17:24.599Z,10.50
2023-06-29T23:19:51.617Z,6.00
2023-06-29T23:22:20.270Z,7.80
2023-06-29T23:24:47.356Z,5.40
2023-06-29T23:27:14.202Z,5.60
2023-06-29T23:29:41.522Z,6.80
2023-06-29T23:32:08.687Z,5.30
2023-06-29T23:34:35.604Z,8.70
2023-06-29T23:37:02.402Z,6.60
2023-06-29T23:39:29.238Z,7.40
2023-06-29T23:41:56.038Z,11.70
2023-06-29T23:44:22.968Z,5.50
2023-06-29T23:46:50.887Z,6.90
2023-06-29T23:49:20.394Z,5.50
2023-06-29T23:51:49.006Z,7.70
2023-06-29T23:54:16.582Z,7.20
2023-06-29T23:56:46.204Z,8.90
2023-06-29T23:59:13.076Z,12.10
